Time;durP1;ratioP1;P1;durP2;ratioP2;P2;SDS_P1;SDS_P2;PMS_P1;PMS_P2;Temp;Humidity;BMP_temperature;BMP_pressure;BME280_temperature;BME280_humidity;BME280_pressure;Samples;Min_cycle;Max_cycle;Signal;HPM_P1;HPM_P2
2021/11/17 02:25:52;;;;;;;44.67;27.88;;;;;;;;;;5046895;28;20031;-76
2021/11/17 02:28:20;;;;;;;44.16;27.52;;;;;;;;;;5091960;28;20036;-77
2021/11/17 02:30:51;;;;;;;45.83;28.30;;;;;;;;;;5089694;28;20019;-76
2021/11/17 02:33:19;;;;;;;47.88;30.23;;;;;;;;;;5091896;28;20016;-77
2021/11/17 02:35:59;;;;;;;48.65;29.92;;;;;;;;;;5092030;28;20107;-77
2021/11/17 02:38:24;;;;;;;43.03;27.50;;;;;;;;;;5091923;28;20095;-78
2021/11/17 02:40:56;;;;;;;50.00;29.15;;;;;;;;;;5075368;28;20060;-77
2021/11/17 02:43:27;;;;;;;45.78;29.40;;;;;;;;;;5114772;27;20027;-77
2021/11/17 02:46:10;;;;;;;46.35;29.13;;;;;;;;;;5089809;28;20015;-77
2021/11/17 02:48:35;;;;;;;46.75;29.13;;;;;;;;;;5091208;28;20067;-78
2021/11/17 02:51:12;;;;;;;48.55;29.30;;;;;;;;;;5092969;28;20036;-78
2021/11/17 02:53:38;;;;;;;48.67;29.83;;;;;;;;;;5074965;28;20024;-78
2021/11/17 02:56:21;;;;;;;50.35;29.60;;;;;;;;;;5088563;28;20106;-77
2021/11/17 02:58:49;;;;;;;46.38;29.10;;;;;;;;;;5086654;28;20020;-79
2021/11/17 03:01:26;;;;;;;49.00;31.08;;;;;;;;;;5094445;28;20145;-78
2021/11/17 03:04:05;;;;;;;54.58;31.98;;;;;;;;;;5072420;28;20030;-76
2021/11/17 03:06:33;;;;;;;49.83;29.98;;;;;;;;;;5076950;28;20032;-78
2021/11/17 03:09:06;;;;;;;46.72;30.42;;;;;;;;;;5090232;28;20113;-78
2021/11/17 03:11:56;;;;;;;50.65;30.10;;;;;;;;;;5081137;28;20142;-78
2021/11/17 03:14:44;;;;;;;50.03;30.23;;;;;;;;;;5090961;28;20430;-78
2021/11/17 03:17:31;;;;;;;51.08;30.33;;;;;;;;;;5107801;27;20032;-79
2021/11/17 03:19:56;;;;;;;52.60;30.73;;;;;;;;;;5088166;28;20013;-78
2021/11/17 03:22:36;;;;;;;48.42;29.60;;;;;;;;;;5077432;28;20039;-78
2021/11/17 03:25:10;;;;;;;50.42;30.70;;;;;;;;;;5083538;28;20547;-77
2021/11/17 03:27:54;;;;;;;49.33;29.95;;;;;;;;;;5090689;28;20051;-76
2021/11/17 03:30:20;;;;;;;50.42;29.63;;;;;;;;;;5091441;28;20062;-78
2021/11/17 03:33:00;;;;;;;49.92;27.95;;;;;;;;;;5090845;28;20099;-76
2021/11/17 03:35:31;;;;;;;50.95;30.58;;;;;;;;;;5091111;28;20039;-78
2021/11/17 03:38:09;;;;;;;50.88;29.63;;;;;;;;;;5094034;28;20012;-79
2021/11/17 03:40:45;;;;;;;49.03;29.15;;;;;;;;;;5066896;28;20067;-78
2021/11/17 03:43:18;;;;;;;50.97;31.20;;;;;;;;;;5087716;28;20026;-80
2021/11/17 03:45:49;;;;;;;53.90;30.75;;;;;;;;;;5093628;28;20396;-78
2021/11/17 03:48:36;;;;;;;51.58;30.17;;;;;;;;;;5073493;28;20030;-79
2021/11/17 03:51:08;;;;;;;54.67;32.38;;;;;;;;;;5092296;28;20070;-78
2021/11/17 03:53:43;;;;;;;56.78;31.08;;;;;;;;;;5074358;28;20031;-78
2021/11/17 03:56:15;;;;;;;61.58;33.70;;;;;;;;;;5066732;28;20013;-78
2021/11/17 03:58:40;;;;;;;60.05;32.80;;;;;;;;;;5089855;28;20050;-78
2021/11/17 04:01:14;;;;;;;58.88;32.65;;;;;;;;;;5084109;28;20453;-78
2021/11/17 04:03:54;;;;;;;56.55;31.08;;;;;;;;;;5073529;28;20099;-79
2021/11/17 04:06:38;;;;;;;65.40;33.70;;;;;;;;;;5092295;28;20103;-78
2021/11/17 04:09:06;;;;;;;59.17;32.33;;;;;;;;;;5091557;28;20028;-80
2021/11/17 04:11:38;;;;;;;58.10;32.92;;;;;;;;;;5091298;28;20073;-78
2021/11/17 04:14:18;;;;;;;58.90;33.20;;;;;;;;;;5089933;28;20110;-79
2021/11/17 04:16:53;;;;;;;60.65;31.98;;;;;;;;;;5090032;28;20412;-79
2021/11/17 04:19:41;;;;;;;59.83;33.78;;;;;;;;;;5090377;28;20023;-80
2021/11/17 04:22:25;;;;;;;64.15;33.33;;;;;;;;;;5068575;28;20028;-79
2021/11/17 04:24:53;;;;;;;65.03;34.83;;;;;;;;;;5082588;28;20020;-79
2021/11/17 04:27:37;;;;;;;66.88;33.97;;;;;;;;;;5081229;28;20130;-79
2021/11/17 04:30:14;;;;;;;60.08;32.80;;;;;;;;;;5069992;28;20404;-78
2021/11/17 04:32:58;;;;;;;67.70;35.33;;;;;;;;;;5088473;28;20047;-78
2021/11/17 04:35:31;;;;;;;67.80;33.55;;;;;;;;;;5090020;28;20058;-79
2021/11/17 04:37:56;;;;;;;62.03;33.38;;;;;;;;;;5090057;28;20024;-78
2021/11/17 04:40:21;;;;;;;68.78;33.67;;;;;;;;;;5078062;28;20396;-79
2021/11/17 04:42:46;;;;;;;66.80;33.85;;;;;;;;;;5090267;28;20024;-78
2021/11/17 04:45:14;;;;;;;72.68;35.45;;;;;;;;;;5094729;28;20032;-78
2021/11/17 04:47:58;;;;;;;68.72;34.35;;;;;;;;;;5095185;28;20060;-78
2021/11/17 04:50:23;;;;;;;64.57;34.03;;;;;;;;;;5095360;28;20103;-78
2021/11/17 04:53:07;;;;;;;72.78;35.28;;;;;;;;;;5083939;28;20104;-78
2021/11/17 04:55:51;;;;;;;68.75;36.33;;;;;;;;;;5089903;28;20017;-78
2021/11/17 04:58:29;;;;;;;77.18;38.22;;;;;;;;;;5104372;28;20016;-77
2021/11/17 05:00:57;;;;;;;76.30;36.70;;;;;;;;;;5113631;28;20557;-77
2021/11/17 05:03:31;;;;;;;76.85;36.88;;;;;;;;;;5114210;28;20030;-78
2021/11/17 05:05:56;;;;;;;70.68;35.22;;;;;;;;;;5114935;28;20027;-76
2021/11/17 05:08:37;;;;;;;71.28;36.40;;;;;;;;;;5113505;28;20032;-78
2021/11/17 05:11:18;;;;;;;72.95;35.05;;;;;;;;;;5113778;28;20046;-79
2021/11/17 05:13:47;;;;;;;75.90;36.55;;;;;;;;;;5095358;28;20016;-79
2021/11/17 05:16:15;;;;;;;69.90;34.70;;;;;;;;;;5113537;28;20024;-78
2021/11/17 05:18:41;;;;;;;76.70;35.47;;;;;;;;;;5112809;28;20027;-78
2021/11/17 05:21:06;;;;;;;66.68;34.55;;;;;;;;;;5112002;28;20039;-76
2021/11/17 05:23:50;;;;;;;79.78;36.08;;;;;;;;;;5096786;28;20029;-77
2021/11/17 05:26:21;;;;;;;75.45;35.42;;;;;;;;;;5086265;28;20035;-80
2021/11/17 05:28:46;;;;;;;78.07;35.90;;;;;;;;;;5100125;28;20048;-81
2021/11/17 05:31:15;;;;;;;80.30;35.88;;;;;;;;;;5093488;28;20076;-79
2021/11/17 05:34:03;;;;;;;77.35;36.30;;;;;;;;;;5076533;28;20496;-78
2021/11/17 05:36:46;;;;;;;80.22;35.72;;;;;;;;;;5086959;28;20028;-76
2021/11/17 05:39:14;;;;;;;69.78;34.05;;;;;;;;;;5095207;28;20020;-78
2021/11/17 05:41:58;;;;;;;83.85;36.20;;;;;;;;;;5095662;28;20085;-78
2021/11/17 05:44:33;;;;;;;79.80;37.53;;;;;;;;;;5094172;28;20012;-78
2021/11/17 05:47:01;;;;;;;81.22;36.50;;;;;;;;;;5091665;28;20024;-79
2021/11/17 05:49:49;;;;;;;78.60;37.50;;;;;;;;;;5093597;28;20032;-79
2021/11/17 05:52:14;;;;;;;78.35;37.67;;;;;;;;;;5074157;28;20031;-78
2021/11/17 05:54:59;;;;;;;84.25;38.28;;;;;;;;;;5077988;28;20016;-80
2021/11/17 05:57:24;;;;;;;86.33;39.73;;;;;;;;;;5085480;28;20476;-77
2021/11/17 05:59:55;;;;;;;78.68;37.22;;;;;;;;;;5092153;28;20045;-78
2021/11/17 06:02:26;;;;;;;84.93;37.83;;;;;;;;;;5091864;28;20024;-78
2021/11/17 06:04:53;;;;;;;77.60;38.17;;;;;;;;;;5070999;28;20074;-78
2021/11/17 06:07:18;;;;;;;73.68;36.13;;;;;;;;;;5081704;28;20068;-77
2021/11/17 06:09:43;;;;;;;84.25;40.10;;;;;;;;;;5093867;28;20455;-77
2021/11/17 06:12:14;;;;;;;83.55;38.47;;;;;;;;;;5093660;28;20020;-77
2021/11/17 06:14:42;;;;;;;87.10;39.47;;;;;;;;;;5091780;28;20040;-77
2021/11/17 06:17:09;;;;;;;90.85;40.35;;;;;;;;;;5092600;28;20019;-76
2021/11/17 06:19:37;;;;;;;86.43;39.35;;;;;;;;;;5093608;28;20027;-78
2021/11/17 06:22:03;;;;;;;91.32;39.20;;;;;;;;;;5084115;28;20416;-77
2021/11/17 06:24:29;;;;;;;79.00;39.28;;;;;;;;;;5083325;28;20013;-78
2021/11/17 06:26:54;;;;;;;82.40;36.83;;;;;;;;;;5089313;28;20032;-75
2021/11/17 06:29:22;;;;;;;88.07;39.30;;;;;;;;;;5104984;28;20126;-77
2021/11/17 06:31:48;;;;;;;98.82;42.30;;;;;;;;;;5090063;28;20026;-78
2021/11/17 06:34:22;;;;;;;86.22;41.42;;;;;;;;;;5081288;28;20029;-78
2021/11/17 06:36:48;;;;;;;93.70;40.43;;;;;;;;;;5077783;28;20028;-76
2021/11/17 06:39:13;;;;;;;86.38;39.30;;;;;;;;;;5090799;28;20802;-77
2021/11/17 06:41:38;;;;;;;77.93;38.58;;;;;;;;;;5088329;28;20012;-77
2021/11/17 06:44:04;;;;;;;75.68;37.10;;;;;;;;;;5094591;28;20024;-77
2021/11/17 06:46:29;;;;;;;80.47;36.38;;;;;;;;;;5094338;28;20468;-78
2021/11/17 06:48:54;;;;;;;69.15;35.25;;;;;;;;;;5089137;28;20472;-75
2021/11/17 06:51:19;;;;;;;68.80;34.75;;;;;;;;;;5071051;28;20135;-77
2021/11/17 06:53:45;;;;;;;76.68;34.05;;;;;;;;;;5055831;28;20036;-77
2021/11/17 06:56:10;;;;;;;67.85;34.30;;;;;;;;;;5075662;28;20025;-79
2021/11/17 06:58:35;;;;;;;64.20;31.17;;;;;;;;;;5086740;28;20411;-76
2021/11/17 07:01:00;;;;;;;59.30;30.63;;;;;;;;;;5075990;28;20107;-78
2021/11/17 07:03:27;;;;;;;58.85;30.27;;;;;;;;;;5086348;28;20021;-78
2021/11/17 07:05:52;;;;;;;57.72;30.70;;;;;;;;;;5083621;28;20452;-79
2021/11/17 07:08:17;;;;;;;52.55;28.77;;;;;;;;;;5097105;28;20028;-79
2021/11/17 07:10:43;;;;;;;51.65;29.48;;;;;;;;;;5082830;28;20036;-77
2021/11/17 07:13:08;;;;;;;54.00;29.20;;;;;;;;;;5087145;28;20028;-79
2021/11/17 07:15:34;;;;;;;52.25;28.63;;;;;;;;;;5082005;28;20024;-77
2021/11/17 07:17:59;;;;;;;51.10;27.58;;;;;;;;;;5091589;28;20027;-79
2021/11/17 07:20:25;;;;;;;46.97;26.27;;;;;;;;;;5090635;28;20017;-75
2021/11/17 07:22:50;;;;;;;48.83;26.33;;;;;;;;;;5078678;28;20376;-80
2021/11/17 07:25:21;;;;;;;53.78;27.80;;;;;;;;;;5083843;28;20032;-76
2021/11/17 07:27:47;;;;;;;50.42;27.38;;;;;;;;;;5080338;28;20048;-81
2021/11/17 07:30:14;;;;;;;55.40;28.35;;;;;;;;;;5109947;27;20025;-79
2021/11/17 07:32:39;;;;;;;50.70;26.65;;;;;;;;;;5113742;28;20047;-78
2021/11/17 07:35:05;;;;;;;46.05;25.02;;;;;;;;;;5111964;28;20085;-79
2021/11/17 07:37:30;;;;;;;48.45;26.33;;;;;;;;;;5097838;28;20032;-79
2021/11/17 07:39:59;;;;;;;41.13;23.70;;;;;;;;;;5085579;28;20055;-78
2021/11/17 07:42:24;;;;;;;43.70;23.88;;;;;;;;;;5082453;28;20088;-77
2021/11/17 07:44:50;;;;;;;41.45;22.75;;;;;;;;;;5088214;28;20054;-80
2021/11/17 07:47:16;;;;;;;39.65;21.27;;;;;;;;;;5095373;28;20030;-78
2021/11/17 07:49:41;;;;;;;37.63;21.00;;;;;;;;;;5097025;28;20024;-79
2021/11/17 07:52:06;;;;;;;37.75;19.75;;;;;;;;;;5093274;28;20102;-78
2021/11/17 07:54:31;;;;;;;39.58;21.38;;;;;;;;;;5072091;28;20473;-77
2021/11/17 07:56:59;;;;;;;40.95;21.40;;;;;;;;;;5098772;28;20329;-80
2021/11/17 07:59:25;;;;;;;38.25;20.25;;;;;;;;;;5078407;28;20458;-76
2021/11/17 08:01:55;;;;;;;38.70;21.10;;;;;;;;;;5089787;28;20024;-79
2021/11/17 08:04:21;;;;;;;37.13;19.98;;;;;;;;;;5094930;28;20111;-80
2021/11/17 08:06:47;;;;;;;39.08;21.27;;;;;;;;;;5100631;28;20026;-78
2021/11/17 08:09:13;;;;;;;42.63;22.42;;;;;;;;;;5092652;28;20024;-78
2021/11/17 08:11:39;;;;;;;40.50;21.42;;;;;;;;;;5097257;28;20394;-79
2021/11/17 08:14:04;;;;;;;29.63;17.42;;;;;;;;;;5096103;28;20039;-79
2021/11/17 08:16:30;;;;;;;32.33;18.50;;;;;;;;;;5100000;28;20116;-81
2021/11/17 08:18:55;;;;;;;38.50;19.90;;;;;;;;;;5093476;28;20016;-78
2021/11/17 08:21:21;;;;;;;34.55;19.42;;;;;;;;;;5086533;28;20017;-80
2021/11/17 08:23:46;;;;;;;31.35;17.25;;;;;;;;;;5085436;28;20025;-80
2021/11/17 08:26:11;;;;;;;33.63;18.00;;;;;;;;;;5102555;28;20118;-77
2021/11/17 08:28:37;;;;;;;34.13;17.10;;;;;;;;;;5098471;28;20044;-77
2021/11/17 08:31:03;;;;;;;31.35;16.00;;;;;;;;;;5095961;28;20029;-77
2021/11/17 08:33:28;;;;;;;31.27;17.55;;;;;;;;;;5098436;28;20016;-76
2021/11/17 08:35:53;;;;;;;30.58;16.38;;;;;;;;;;5092525;28;20033;-77
2021/11/17 08:38:20;;;;;;;29.75;14.77;;;;;;;;;;5080734;28;20500;-75
2021/11/17 08:40:50;;;;;;;27.65;15.57;;;;;;;;;;5089218;28;20040;-76
2021/11/17 08:43:15;;;;;;;24.90;13.98;;;;;;;;;;5087680;28;20020;-77
2021/11/17 08:45:41;;;;;;;27.13;15.88;;;;;;;;;;5089310;28;20020;-75
2021/11/17 08:48:07;;;;;;;26.05;13.75;;;;;;;;;;5090486;28;20024;-76
2021/11/17 08:50:33;;;;;;;24.02;12.85;;;;;;;;;;5090609;28;20054;-76
2021/11/17 08:52:59;;;;;;;22.30;11.52;;;;;;;;;;5116220;27;20020;-77
2021/11/17 08:55:25;;;;;;;23.02;12.02;;;;;;;;;;5117862;27;20035;-74
2021/11/17 08:57:50;;;;;;;19.73;11.00;;;;;;;;;;5092282;28;20019;-77
2021/11/17 09:00:17;;;;;;;21.42;11.93;;;;;;;;;;5098840;28;20487;-76
2021/11/17 09:02:43;;;;;;;18.85;10.77;;;;;;;;;;5093600;28;20028;-76
2021/11/17 09:05:11;;;;;;;17.95;11.63;;;;;;;;;;5084950;28;20102;-76
2021/11/17 09:07:37;;;;;;;20.85;11.55;;;;;;;;;;5083322;28;20039;-77
2021/11/17 09:10:03;;;;;;;17.40;10.40;;;;;;;;;;5085837;28;20050;-77
2021/11/17 09:12:28;;;;;;;18.08;10.95;;;;;;;;;;5093621;28;21530;-78
2021/11/17 09:14:53;;;;;;;21.10;10.65;;;;;;;;;;5105147;28;20066;-77
2021/11/17 09:17:19;;;;;;;17.77;10.23;;;;;;;;;;5096478;28;20024;-77
2021/11/17 09:19:44;;;;;;;13.90;9.07;;;;;;;;;;5132141;27;20021;-74
2021/11/17 09:22:09;;;;;;;16.85;9.63;;;;;;;;;;5096022;28;20077;-78
2021/11/17 09:24:35;;;;;;;13.60;8.75;;;;;;;;;;5090330;28;20020;-76
2021/11/17 09:27:04;;;;;;;12.95;7.90;;;;;;;;;;5087861;28;20130;-77
2021/11/17 09:29:31;;;;;;;12.07;7.43;;;;;;;;;;5088741;28;20032;-76
2021/11/17 09:31:56;;;;;;;11.65;7.55;;;;;;;;;;5088183;28;20065;-75
2021/11/17 09:34:21;;;;;;;12.50;8.00;;;;;;;;;;5083732;28;20035;-76
2021/11/17 09:36:47;;;;;;;11.60;7.18;;;;;;;;;;5079572;28;20028;-77
2021/11/17 09:39:13;;;;;;;10.55;7.32;;;;;;;;;;5083778;28;20028;-75
2021/11/17 09:41:40;;;;;;;11.00;7.35;;;;;;;;;;5087533;28;20107;-76
2021/11/17 09:44:09;;;;;;;12.57;7.55;;;;;;;;;;5084031;28;20036;-76
2021/11/17 09:46:35;;;;;;;11.55;6.80;;;;;;;;;;5093143;28;20047;-76
2021/11/17 09:49:02;;;;;;;8.80;6.78;;;;;;;;;;5090673;28;20020;-75
2021/11/17 09:51:30;;;;;;;9.27;6.47;;;;;;;;;;5091095;28;20031;-75
2021/11/17 09:54:01;;;;;;;8.80;5.50;;;;;;;;;;5084290;28;20024;-76
2021/11/17 09:56:30;;;;;;;7.68;5.60;;;;;;;;;;5091196;28;20028;-77
2021/11/17 09:59:01;;;;;;;13.23;9.38;;;;;;;;;;5086113;28;20019;-78
2021/11/17 10:01:29;;;;;;;10.45;7.40;;;;;;;;;;5086197;28;20405;-75
2021/11/17 10:03:59;;;;;;;9.52;6.82;;;;;;;;;;5080512;28;20016;-75
2021/11/17 10:11:46;;;;;;;9.07;6.68;;;;;;;;;;5092656;28;20024;-77
2021/11/17 10:14:15;;;;;;;7.18;5.30;;;;;;;;;;5108088;28;20032;-77
2021/11/17 10:16:41;;;;;;;6.75;4.88;;;;;;;;;;5107702;28;20104;-79
2021/11/17 10:19:09;;;;;;;6.25;4.80;;;;;;;;;;5096132;28;20476;-77
2021/11/17 10:21:36;;;;;;;7.13;5.45;;;;;;;;;;5099664;28;20024;-77
2021/11/17 10:24:01;;;;;;;8.70;5.40;;;;;;;;;;5098097;28;20024;-78
2021/11/17 10:26:27;;;;;;;7.43;5.38;;;;;;;;;;5105221;28;20055;-77
2021/11/17 10:28:58;;;;;;;6.95;5.32;;;;;;;;;;5125084;28;20083;-77
2021/11/17 10:31:26;;;;;;;7.68;5.78;;;;;;;;;;5099525;28;20035;-77
2021/11/17 10:34:18;;;;;;;8.40;5.63;;;;;;;;;;5089674;28;20510;-75
2021/11/17 10:37:15;;;;;;;9.25;6.47;;;;;;;;;;5078795;28;20043;-77
2021/11/17 10:39:43;;;;;;;8.57;6.65;;;;;;;;;;5038293;28;20053;-75
2021/11/17 10:42:09;;;;;;;8.65;5.95;;;;;;;;;;5044520;28;20068;-78
2021/11/17 10:44:46;;;;;;;9.60;6.70;;;;;;;;;;5030296;28;20029;-77
2021/11/17 10:47:14;;;;;;;9.02;6.78;;;;;;;;;;5037769;28;20021;-68
2021/11/17 10:49:44;;;;;;;9.25;5.57;;;;;;;;;;5043769;28;20512;-74
2021/11/17 10:52:12;;;;;;;7.75;5.60;;;;;;;;;;5036772;28;20039;-73
2021/11/17 10:54:45;;;;;;;7.78;5.82;;;;;;;;;;5028246;28;20037;-78
2021/11/17 10:57:12;;;;;;;8.23;6.45;;;;;;;;;;5061336;28;20070;-78
2021/11/17 10:59:38;;;;;;;8.25;6.32;;;;;;;;;;5046075;28;20443;-81
2021/11/17 11:02:04;;;;;;;9.45;6.10;;;;;;;;;;5011058;28;20037;-76
2021/11/17 11:04:37;;;;;;;7.50;5.43;;;;;;;;;;5034521;28;20021;-80
2021/11/17 11:07:17;;;;;;;8.02;6.10;;;;;;;;;;5051122;28;20039;-72
2021/11/17 11:09:45;;;;;;;6.82;5.60;;;;;;;;;;5027275;28;20099;-72
2021/11/17 11:12:13;;;;;;;9.63;6.32;;;;;;;;;;5027354;28;20042;-73
2021/11/17 11:14:43;;;;;;;8.07;6.30;;;;;;;;;;5037895;28;20032;-72
2021/11/17 11:17:18;;;;;;;7.70;6.32;;;;;;;;;;5071901;28;20118;-68
2021/11/17 11:19:43;;;;;;;8.70;6.07;;;;;;;;;;5098983;28;20027;-78
2021/11/17 11:22:13;;;;;;;10.75;7.00;;;;;;;;;;5082525;28;20373;-83
2021/11/17 11:24:46;;;;;;;8.07;6.57;;;;;;;;;;5087433;28;20016;-67
2021/11/17 11:27:30;;;;;;;10.30;5.85;;;;;;;;;;5094671;28;20037;-69
2021/11/17 11:30:06;;;;;;;8.68;6.75;;;;;;;;;;5071506;28;20040;-72
2021/11/17 11:32:31;;;;;;;8.50;5.63;;;;;;;;;;5081176;28;20107;-71
2021/11/17 11:35:00;;;;;;;7.00;5.63;;;;;;;;;;5087155;28;20484;-71
2021/11/17 11:37:25;;;;;;;7.75;5.85;;;;;;;;;;5076508;28;22117;-71
2021/11/17 11:39:51;;;;;;;6.10;5.03;;;;;;;;;;5083830;28;20056;-71
2021/11/17 11:42:16;;;;;;;4.95;3.97;;;;;;;;;;5082239;28;20365;-70
2021/11/17 11:44:44;;;;;;;4.90;4.32;;;;;;;;;;5074763;28;20115;-72
2021/11/17 11:47:10;;;;;;;4.30;3.90;;;;;;;;;;5089552;28;20028;-73
2021/11/17 11:49:50;;;;;;;4.80;4.03;;;;;;;;;;5087555;28;20070;-69
2021/11/17 11:52:29;;;;;;;5.07;3.33;;;;;;;;;;5074865;28;20020;-70
2021/11/17 11:54:55;;;;;;;4.25;2.72;;;;;;;;;;5076071;28;20032;-70
2021/11/17 11:57:23;;;;;;;4.30;3.35;;;;;;;;;;5071975;28;20024;-69
2021/11/17 11:59:52;;;;;;;3.83;3.40;;;;;;;;;;5071285;28;20020;-69
2021/11/17 12:02:20;;;;;;;3.08;2.40;;;;;;;;;;5086872;28;20024;-70
2021/11/17 12:04:47;;;;;;;3.58;2.75;;;;;;;;;;5087849;28;20023;-70
2021/11/17 12:07:16;;;;;;;2.58;2.25;;;;;;;;;;5071876;28;20032;-70
2021/11/17 12:10:14;;;;;;;3.45;2.20;;;;;;;;;;5077906;28;20545;-70
2021/11/17 12:12:40;;;;;;;2.95;2.05;;;;;;;;;;5011783;28;20157;-70
2021/11/17 12:15:14;;;;;;;2.53;2.33;;;;;;;;;;5021429;28;20089;-70
2021/11/17 12:17:40;;;;;;;2.53;1.63;;;;;;;;;;4994699;28;20438;-71
2021/11/17 12:20:27;;;;;;;2.75;2.28;;;;;;;;;;5015512;28;20028;-70
2021/11/17 12:22:54;;;;;;;3.63;2.97;;;;;;;;;;5014262;28;20338;-71
2021/11/17 12:25:24;;;;;;;3.67;3.33;;;;;;;;;;5028433;28;20017;-70
2021/11/17 12:27:55;;;;;;;3.53;3.17;;;;;;;;;;5028795;28;20521;-70
2021/11/17 12:30:39;;;;;;;4.97;3.63;;;;;;;;;;5015043;28;20026;-71
2021/11/17 12:33:11;;;;;;;3.45;2.97;;;;;;;;;;5017406;28;20466;-71
2021/11/17 12:35:39;;;;;;;3.25;2.95;;;;;;;;;;5021702;28;20030;-71
2021/11/17 12:38:09;;;;;;;4.30;3.33;;;;;;;;;;5009695;28;20498;-70
2021/11/17 12:40:40;;;;;;;4.30;2.90;;;;;;;;;;5024070;28;20022;-71
2021/11/17 12:43:12;;;;;;;3.83;2.85;;;;;;;;;;5012121;28;20021;-71
2021/11/17 12:45:41;;;;;;;3.38;2.53;;;;;;;;;;5025436;28;20032;-70
2021/11/17 12:48:23;;;;;;;4.05;2.88;;;;;;;;;;5036419;28;20086;-70
2021/11/17 12:50:52;;;;;;;3.33;2.83;;;;;;;;;;5089632;28;20012;-70
2021/11/17 12:53:20;;;;;;;3.50;2.97;;;;;;;;;;5074623;28;20069;-75
2021/11/17 12:55:48;;;;;;;3.15;2.85;;;;;;;;;;5072964;28;20082;-72
2021/11/17 12:58:13;;;;;;;3.15;2.85;;;;;;;;;;5075472;28;20017;-73
2021/11/17 13:00:41;;;;;;;3.78;2.90;;;;;;;;;;5075643;28;20024;-73
2021/11/17 13:03:08;;;;;;;3.38;2.90;;;;;;;;;;5071342;28;20385;-73
2021/11/17 13:05:36;;;;;;;4.57;3.20;;;;;;;;;;5077138;28;20078;-73
2021/11/17 13:08:04;;;;;;;4.95;3.28;;;;;;;;;;5074890;28;20020;-72
2021/11/17 13:10:32;;;;;;;3.97;3.25;;;;;;;;;;5075617;28;20068;-73
2021/11/17 13:13:01;;;;;;;3.20;2.90;;;;;;;;;;5094412;28;20421;-71
2021/11/17 13:15:36;;;;;;;3.58;2.90;;;;;;;;;;5092864;28;20494;-72
2021/11/17 13:18:04;;;;;;;4.35;2.67;;;;;;;;;;5089084;28;20024;-71
2021/11/17 13:20:38;;;;;;;3.42;2.50;;;;;;;;;;5073841;28;20389;-71
2021/11/17 13:23:09;;;;;;;4.03;2.90;;;;;;;;;;5080561;28;20025;-71
2021/11/17 13:25:46;;;;;;;4.15;2.65;;;;;;;;;;5082087;28;20023;-71
2021/11/17 13:28:31;;;;;;;2.72;2.42;;;;;;;;;;5089668;28;20040;-71
2021/11/17 13:30:57;;;;;;;2.85;2.65;;;;;;;;;;5073795;28;20024;-71
2021/11/17 13:33:28;;;;;;;2.88;2.45;;;;;;;;;;5081922;28;20024;-71
2021/11/17 13:35:59;;;;;;;3.47;2.72;;;;;;;;;;5074268;28;20468;-72
2021/11/17 13:38:24;;;;;;;3.60;2.80;;;;;;;;;;5075684;28;20013;-71
2021/11/17 13:40:52;;;;;;;4.22;2.80;;;;;;;;;;5088317;28;20028;-72
2021/11/17 13:43:18;;;;;;;2.03;1.83;;;;;;;;;;5094060;28;20120;-71
2021/11/17 13:45:44;;;;;;;2.92;2.35;;;;;;;;;;5094091;28;20075;-71
2021/11/17 13:48:10;;;;;;;3.15;2.35;;;;;;;;;;5085148;28;20498;-70
2021/11/17 13:50:36;;;;;;;3.03;2.60;;;;;;;;;;5094501;28;20107;-71
2021/11/17 13:53:03;;;;;;;3.08;2.78;;;;;;;;;;5079474;28;20032;-70
2021/11/17 13:55:30;;;;;;;3.03;2.50;;;;;;;;;;5072493;28;20163;-71
2021/11/17 13:57:56;;;;;;;3.15;2.50;;;;;;;;;;5076936;28;20360;-70
2021/11/17 14:00:22;;;;;;;2.38;2.15;;;;;;;;;;5093346;28;20031;-72
2021/11/17 14:02:48;;;;;;;2.03;1.80;;;;;;;;;;5072742;28;20024;-71
2021/11/17 14:05:14;;;;;;;4.03;2.47;;;;;;;;;;5086412;28;20488;-71
2021/11/17 14:07:39;;;;;;;3.10;2.63;;;;;;;;;;5074557;28;20101;-72
2021/11/17 14:10:06;;;;;;;3.10;2.20;;;;;;;;;;5066872;28;20501;-71
2021/11/17 14:12:31;;;;;;;2.35;2.15;;;;;;;;;;5081218;28;20024;-71
2021/11/17 14:14:57;;;;;;;2.63;1.88;;;;;;;;;;5096654;28;20160;-71
2021/11/17 14:17:22;;;;;;;2.30;1.88;;;;;;;;;;5098909;28;20032;-71
2021/11/17 14:19:48;;;;;;;2.53;2.20;;;;;;;;;;5082010;28;20028;-71
2021/11/17 14:22:14;;;;;;;2.17;1.88;;;;;;;;;;5085977;28;20099;-71
2021/11/17 14:24:39;;;;;;;2.22;1.77;;;;;;;;;;5119848;27;20491;-71
2021/11/17 14:27:06;;;;;;;2.67;2.40;;;;;;;;;;5083965;28;20400;-71
2021/11/17 14:29:51;;;;;;;2.88;2.10;;;;;;;;;;5075422;28;20133;-70
2021/11/17 14:32:21;;;;;;;2.92;2.53;;;;;;;;;;5093579;28;20104;-70
2021/11/17 14:34:46;;;;;;;2.00;1.75;;;;;;;;;;5077440;28;20481;-70
2021/11/17 14:37:12;;;;;;;1.80;1.40;;;;;;;;;;5079142;28;20071;-71
2021/11/17 14:39:40;;;;;;;1.65;1.33;;;;;;;;;;5078567;28;20068;-70
2021/11/17 14:42:06;;;;;;;2.40;1.75;;;;;;;;;;5078750;28;20013;-71
2021/11/17 14:44:31;;;;;;;2.28;1.58;;;;;;;;;;5079375;28;20023;-71
2021/11/17 14:46:57;;;;;;;2.08;1.80;;;;;;;;;;5087871;28;20024;-72
2021/11/17 14:49:22;;;;;;;1.75;1.65;;;;;;;;;;5085430;28;20039;-71
2021/11/17 14:51:47;;;;;;;1.60;1.40;;;;;;;;;;5085104;28;20024;-72
2021/11/17 14:54:13;;;;;;;2.13;1.92;;;;;;;;;;5086856;28;20444;-70
2021/11/17 14:56:39;;;;;;;1.77;1.67;;;;;;;;;;5083514;28;20070;-71
2021/11/17 14:59:04;;;;;;;1.80;1.60;;;;;;;;;;5085435;28;20126;-71
2021/11/17 15:01:31;;;;;;;1.83;1.50;;;;;;;;;;5081369;28;20020;-71
2021/11/17 15:03:57;;;;;;;2.10;1.90;;;;;;;;;;5070924;28;20043;-70
2021/11/17 15:06:23;;;;;;;2.13;1.70;;;;;;;;;;5078919;28;20043;-70
2021/11/17 15:08:51;;;;;;;1.77;1.60;;;;;;;;;;5075435;28;20028;-70
2021/11/17 15:11:16;;;;;;;2.13;1.65;;;;;;;;;;5092503;28;20027;-70
2021/11/17 15:13:42;;;;;;;4.50;2.00;;;;;;;;;;5092262;28;20057;-70
2021/11/17 15:16:09;;;;;;;2.70;2.20;;;;;;;;;;5090342;28;20031;-70
2021/11/17 15:18:36;;;;;;;2.75;2.30;;;;;;;;;;5080127;28;20495;-72
2021/11/17 15:21:04;;;;;;;2.53;2.33;;;;;;;;;;5072500;28;20027;-71
2021/11/17 15:23:31;;;;;;;3.13;1.98;;;;;;;;;;5082188;28;20073;-72
2021/11/17 15:25:57;;;;;;;3.53;2.60;;;;;;;;;;5090764;28;20500;-72
2021/11/17 15:28:29;;;;;;;3.15;1.95;;;;;;;;;;5081620;28;20061;-72
2021/11/17 15:30:56;;;;;;;2.33;1.83;;;;;;;;;;5073591;28;20034;-70
2021/11/17 15:33:22;;;;;;;1.90;1.70;;;;;;;;;;5090050;28;20019;-73
2021/11/17 15:35:47;;;;;;;2.97;2.45;;;;;;;;;;5073959;28;20109;-72
2021/11/17 15:38:13;;;;;;;2.97;2.08;;;;;;;;;;5071664;28;20035;-72
2021/11/17 15:40:40;;;;;;;2.67;2.25;;;;;;;;;;5088985;28;20024;-71
2021/11/17 15:43:05;;;;;;;2.25;1.88;;;;;;;;;;5090908;28;20019;-72
2021/11/17 15:45:31;;;;;;;4.20;2.28;;;;;;;;;;5083269;28;20028;-71
2021/11/17 15:47:56;;;;;;;2.17;1.88;;;;;;;;;;5072045;28;20024;-73
2021/11/17 15:50:32;;;;;;;3.45;2.72;;;;;;;;;;5074635;28;20017;-70
2021/11/17 15:52:58;;;;;;;3.95;3.40;;;;;;;;;;5071978;28;20047;-72
2021/11/17 15:55:23;;;;;;;2.60;2.30;;;;;;;;;;5088854;28;20059;-73
2021/11/17 15:57:49;;;;;;;2.47;2.20;;;;;;;;;;5089005;28;20043;-73
2021/11/17 16:00:16;;;;;;;2.55;2.10;;;;;;;;;;5081840;28;20076;-73
2021/11/17 16:02:45;;;;;;;3.35;2.10;;;;;;;;;;5077469;28;20025;-73
2021/11/17 16:05:10;;;;;;;2.10;1.90;;;;;;;;;;5069769;28;20024;-72
2021/11/17 16:07:35;;;;;;;3.55;2.75;;;;;;;;;;5085418;28;20472;-72
2021/11/17 16:10:01;;;;;;;3.78;2.20;;;;;;;;;;5081717;28;20020;-72
2021/11/17 16:12:27;;;;;;;3.83;2.75;;;;;;;;;;5073917;28;20027;-73
2021/11/17 16:14:53;;;;;;;3.22;2.22;;;;;;;;;;5089435;28;20476;-73
2021/11/17 16:17:18;;;;;;;2.75;2.30;;;;;;;;;;5082805;28;20073;-72
2021/11/17 16:19:48;;;;;;;4.30;2.90;;;;;;;;;;5077073;28;20484;-70
2021/11/17 16:22:18;;;;;;;4.80;4.10;;;;;;;;;;5073140;28;20134;-71
2021/11/17 16:27:27;;;;;;;2.67;2.47;;;;;;;;;;5075599;28;20047;-71
2021/11/17 16:29:53;;;;;;;1.83;1.73;;;;;;;;;;5071499;28;20041;-71
2021/11/17 16:32:19;;;;;;;5.60;4.60;;;;;;;;;;5078606;28;20024;-70
2021/11/17 16:34:49;;;;;;;5.35;4.35;;;;;;;;;;5076091;28;20066;-71
2021/11/17 16:37:14;;;;;;;13.05;8.18;;;;;;;;;;5078434;28;20398;-71
2021/11/17 16:39:40;;;;;;;11.73;7.20;;;;;;;;;;5080556;28;20115;-71
2021/11/17 16:42:06;;;;;;;17.17;11.48;;;;;;;;;;5082017;28;20388;-71
2021/11/17 16:44:31;;;;;;;8.40;6.07;;;;;;;;;;5090315;28;20115;-71
2021/11/17 16:46:56;;;;;;;3.83;2.53;;;;;;;;;;5086027;28;20094;-72
2021/11/17 16:49:22;;;;;;;3.15;2.60;;;;;;;;;;5080102;28;20095;-71
2021/11/17 16:52:07;;;;;;;2.20;1.75;;;;;;;;;;5076186;28;20553;-72
2021/11/17 16:54:32;;;;;;;2.63;2.20;;;;;;;;;;5081928;28;20028;-72
2021/11/17 16:56:58;;;;;;;4.25;3.85;;;;;;;;;;5080457;28;20084;-72
2021/11/17 16:59:26;;;;;;;3.85;3.53;;;;;;;;;;5080829;28;20036;-72
2021/11/17 17:01:51;;;;;;;3.22;2.70;;;;;;;;;;5087967;28;20476;-71
2021/11/17 17:04:16;;;;;;;2.58;2.25;;;;;;;;;;5070671;28;20165;-72
2021/11/17 17:06:41;;;;;;;3.70;2.55;;;;;;;;;;5077035;28;20255;-71
2021/11/17 17:09:08;;;;;;;2.20;2.03;;;;;;;;;;5083612;28;20023;-71
2021/11/17 17:11:37;;;;;;;2.90;2.38;;;;;;;;;;5080626;28;20520;-71
2021/11/17 17:14:02;;;;;;;4.20;2.70;;;;;;;;;;5078397;28;20127;-71
2021/11/17 17:16:27;;;;;;;4.22;2.38;;;;;;;;;;5081743;28;20111;-71